Airfield :







YOU CAN JOIN US ON...

 
LOGIN :

Register | Disclaimer

   EN    FR    IT 

 









Legend :    VFR   Marginal VFR   IFR   Intensive IFR   Very Intensive IFR
Visi :
Ceiling :
>= 8 km
>= 3000ft
5 to 8 km
1000 to 3000 ft
1500m to 5 km
500 to 1000 ft
800 to 1500m
200 to 500 ft
< 800m
< 200 ft
Symbols :   Thunderstorms  Fog  Heavy snow  Heavy precipitations  Wind > 20 kt






- Airport Elevation : 76 ft
- IATA code : PWM


KPWM - Portland International Jetport

CURRENT METAR :
  • 241751Z 25012G17KT 10SM FEW045 BKN250 08/M04 A2985 RMK AO2 SLP108 T00781044 10083 20011 58019

EXPIRED METARs :
  • 241651Z 26003KT 10SM FEW039 BKN250 08/M04 A2987 RMK AO2 SLP117 T00781044
  • 241551Z 24007KT 10SM FEW049 FEW250 07/M04 A2990 RMK AO2 SLP125 T00721039

TAF KPWM
Valid from the 24 at 18:00 until the 25 at 18:00 UTC


241742Z 2418/2518 24007KT P6SM BKN040
FM250200 20011KT P6SM BKN040
FM250800 24010KT P6SM FEW250 WS020/27040KT
FM251100 28015G23KT P6SM FEW250
KZBW FIR / North America



MET'MAP, your aeronautical weather chart ! - Copyright ORBIFLY December 2007 - Disclaimer

ORBIFLY MET'MAP TEAM :

Programming & Development : Alexandra Zaïnal
Concept & original design : Baudouin d'Aumeries
Assistance for programming : Marc-Olivier Méhu
Technical & hardware support : Manuel Goepfert

Contact : metmap@orbifly.com




SOURCES & CREDITS :

   NOAA